createdAt,value
2024-03-02T00:02:13.795Z,58.30
2024-03-02T00:04:47.120Z,75.55
2024-03-02T00:07:19.873Z,62.90
2024-03-02T00:09:55.175Z,57.22
2024-03-02T00:12:27.905Z,72.07
2024-03-02T00:15:04.214Z,53.75
2024-03-02T00:17:37.228Z,63.50
2024-03-02T00:20:11.011Z,70.65
2024-03-02T00:22:43.786Z,59.33
2024-03-02T00:25:16.923Z,60.08
2024-03-02T00:27:51.054Z,55.03
2024-03-02T00:30:47.456Z,64.85
2024-03-02T00:33:21.450Z,60.33
2024-03-02T00:35:54.815Z,60.67
2024-03-02T00:38:28.207Z,60.00
2024-03-02T00:41:05.369Z,62.83
2024-03-02T00:43:48.540Z,49.55
2024-03-02T00:46:22.247Z,52.92
2024-03-02T00:48:55.907Z,55.80
2024-03-02T00:51:31.054Z,64.50
2024-03-02T00:54:05.998Z,58.55
2024-03-02T00:56:39.088Z,57.00
2024-03-02T00:59:12.475Z,54.47
2024-03-02T01:01:45.813Z,52.45
2024-03-02T01:04:18.480Z,48.47
2024-03-02T01:06:51.814Z,52.90
2024-03-02T01:09:24.470Z,49.20
2024-03-02T01:11:57.982Z,50.13
2024-03-02T01:14:30.855Z,50.83
2024-03-02T01:17:05.911Z,48.58
2024-03-02T01:19:39.530Z,45.38
2024-03-02T01:22:12.631Z,46.17
2024-03-02T01:24:45.486Z,47.22
2024-03-02T01:27:19.037Z,46.75
2024-03-02T01:29:51.774Z,51.13
2024-03-02T01:32:24.874Z,45.42
2024-03-02T01:34:57.715Z,52.85
2024-03-02T01:37:30.720Z,41.70
2024-03-02T01:40:04.542Z,47.72
2024-03-02T01:42:40.597Z,51.42
2024-03-02T01:45:13.690Z,54.88
2024-03-02T01:47:46.894Z,58.28
2024-03-02T01:50:30.067Z,59.10
2024-03-02T01:53:06.730Z,66.20
2024-03-02T01:55:39.382Z,61.17
2024-03-02T01:58:12.452Z,57.85
2024-03-02T02:00:46.990Z,62.03
2024-03-02T02:03:20.220Z,51.05
2024-03-02T02:05:53.125Z,42.40
2024-03-02T02:08:26.397Z,60.53
2024-03-02T02:10:59.154Z,53.25
2024-03-02T02:13:32.250Z,55.08
2024-03-02T02:16:08.700Z,64.20
2024-03-02T02:18:41.962Z,60.65
2024-03-02T02:21:14.842Z,64.90
2024-03-02T02:23:50.001Z,55.08
2024-03-02T02:26:22.869Z,57.53
2024-03-02T02:28:56.142Z,58.95
2024-03-02T02:31:28.898Z,53.92
2024-03-02T02:34:01.969Z,47.13
2024-03-02T02:36:35.340Z,62.25
2024-03-02T02:39:09.661Z,50.63
2024-03-02T02:41:42.355Z,65.75
2024-03-02T02:44:15.669Z,50.28
2024-03-02T02:46:48.260Z,59.83
2024-03-02T02:49:21.435Z,57.60
2024-03-02T02:51:54.183Z,65.43
2024-03-02T02:54:27.404Z,56.60
2024-03-02T02:57:01.007Z,59.20
2024-03-02T02:59:34.022Z,56.38
2024-03-02T03:02:06.719Z,51.97
2024-03-02T03:04:41.406Z,50.35
2024-03-02T03:07:14.528Z,72.47
2024-03-02T03:09:47.592Z,61.10
2024-03-02T03:12:20.397Z,56.78
2024-03-02T03:14:53.811Z,58.30
2024-03-02T03:17:26.455Z,58.03
2024-03-02T03:19:59.664Z,51.65
2024-03-02T03:22:36.666Z,58.78
2024-03-02T03:25:10.245Z,62.40
2024-03-02T03:27:43.448Z,49.35
2024-03-02T03:30:16.786Z,59.80
2024-03-02T03:32:52.109Z,57.30
2024-03-02T03:35:25.503Z,55.28
2024-03-02T03:37:58.264Z,53.05
2024-03-02T03:40:31.308Z,60.30
2024-03-02T03:43:04.056Z,60.35
2024-03-02T03:45:37.231Z,55.83
2024-03-02T03:48:10.690Z,60.63
2024-03-02T03:50:43.766Z,48.40
2024-03-02T03:53:16.408Z,58.25
2024-03-02T03:55:50.969Z,52.20
2024-03-02T03:58:23.995Z,48.15
2024-03-02T04:00:57.200Z,57.45
2024-03-02T04:03:29.928Z,62.50
2024-03-02T04:06:03.265Z,53.03
2024-03-02T04:08:36.174Z,57.58
2024-03-02T04:11:09.417Z,50.63
2024-03-02T04:13:42.213Z,61.38
2024-03-02T04:16:15.229Z,64.43
2024-03-02T04:18:47.952Z,58.30
2024-03-02T04:21:21.230Z,52.38
2024-03-02T04:23:54.212Z,67.50
2024-03-02T04:26:27.834Z,57.42
2024-03-02T04:29:00.671Z,66.47
2024-03-02T04:31:33.931Z,60.03
2024-03-02T04:34:06.793Z,53.17
2024-03-02T04:36:40.205Z,54.28
2024-03-02T04:39:12.988Z,53.92
2024-03-02T04:41:46.149Z,53.83
2024-03-02T04:44:18.844Z,50.78
2024-03-02T04:46:52.002Z,54.97
2024-03-02T04:49:24.923Z,57.45
2024-03-02T04:52:01.089Z,48.88
2024-03-02T04:54:34.031Z,56.05
2024-03-02T04:57:07.140Z,51.40
2024-03-02T04:59:39.972Z,48.72
2024-03-02T05:02:17.684Z,58.75
2024-03-02T05:04:50.458Z,50.38
2024-03-02T05:07:23.806Z,53.95
2024-03-02T05:09:56.538Z,48.97
2024-03-02T05:12:44.654Z,48.17
2024-03-02T05:15:17.624Z,47.63
2024-03-02T05:17:50.764Z,57.13
2024-03-02T05:20:23.749Z,38.30
2024-03-02T05:22:56.918Z,43.03
2024-03-02T05:25:29.680Z,44.17
2024-03-02T05:28:02.766Z,51.40
2024-03-02T05:30:36.253Z,45.97
2024-03-02T05:33:09.315Z,50.33
2024-03-02T05:35:42.004Z,52.10
2024-03-02T05:38:15.062Z,52.88
2024-03-02T05:40:47.719Z,45.55
2024-03-02T05:43:21.948Z,64.28
2024-03-02T05:45:54.693Z,53.47
2024-03-02T05:48:27.767Z,56.50
2024-03-02T05:51:00.618Z,55.35
2024-03-02T05:53:38.471Z,48.25
2024-03-02T05:56:15.963Z,56.88
2024-03-02T05:59:07.311Z,41.65
2024-03-02T06:01:41.196Z,50.50
2024-03-02T06:04:21.301Z,54.05
2024-03-02T06:07:02.147Z,49.55
2024-03-02T06:09:35.341Z,41.45
2024-03-02T06:12:08.389Z,47.15
2024-03-02T06:14:44.950Z,49.05
2024-03-02T06:17:17.663Z,57.42
2024-03-02T06:19:50.720Z,57.88
2024-03-02T06:22:26.420Z,47.40
2024-03-02T06:24:59.650Z,49.67
2024-03-02T06:27:32.622Z,44.42
2024-03-02T06:30:06.011Z,46.45
2024-03-02T06:32:38.814Z,62.10
2024-03-02T06:35:12.048Z,53.60
2024-03-02T06:37:44.739Z,65.07
2024-03-02T06:40:17.841Z,45.78
2024-03-02T06:42:50.532Z,41.38
2024-03-02T06:45:23.630Z,45.00
2024-03-02T06:47:56.292Z,48.10
2024-03-02T06:50:30.052Z,52.38
2024-03-02T06:53:05.725Z,55.47
2024-03-02T06:55:38.731Z,51.10
2024-03-02T06:58:12.512Z,51.30
2024-03-02T07:00:45.769Z,53.20
2024-03-02T07:03:18.775Z,48.38
2024-03-02T07:05:52.102Z,49.53
2024-03-02T07:08:25.082Z,54.08
2024-03-02T07:10:59.229Z,41.85
2024-03-02T07:13:31.961Z,40.00
2024-03-02T07:16:05.381Z,51.38
2024-03-02T07:18:46.671Z,55.05
2024-03-02T07:21:20.363Z,47.83
2024-03-02T07:23:54.798Z,53.95
2024-03-02T07:29:03.544Z,52.97
2024-03-02T07:31:37.073Z,70.03
2024-03-02T07:34:10.208Z,49.40
2024-03-02T07:36:44.553Z,59.53
2024-03-02T07:39:18.000Z,45.97
2024-03-02T07:41:51.257Z,65.03
2024-03-02T07:44:24.066Z,53.20
2024-03-02T07:46:57.184Z,48.85
2024-03-02T07:49:29.985Z,49.78
2024-03-02T07:52:03.202Z,47.70
2024-03-02T07:54:37.804Z,47.60
2024-03-02T07:57:10.886Z,54.90
2024-03-02T07:59:44.410Z,54.97
2024-03-02T08:02:17.619Z,49.83
2024-03-02T08:04:50.294Z,46.20
2024-03-02T08:07:23.339Z,42.85
2024-03-02T08:09:56.107Z,50.95
2024-03-02T08:12:29.223Z,53.17
2024-03-02T08:15:01.977Z,51.97
2024-03-02T08:17:37.829Z,58.08
2024-03-02T08:20:11.170Z,44.72
2024-03-02T08:22:44.289Z,47.65
2024-03-02T08:25:17.494Z,51.35
2024-03-02T08:27:50.605Z,47.53
2024-03-02T08:30:23.909Z,47.58
2024-03-02T08:32:57.354Z,49.97
2024-03-02T08:35:30.082Z,47.47
2024-03-02T08:38:04.027Z,46.38
2024-03-02T08:40:36.769Z,38.28
2024-03-02T08:43:09.979Z,36.42
2024-03-02T08:45:43.200Z,42.45
2024-03-02T08:48:16.600Z,38.00
2024-03-02T08:50:52.256Z,37.85
2024-03-02T08:53:25.391Z,42.70
2024-03-02T08:55:59.671Z,38.30
2024-03-02T08:58:40.873Z,37.03
2024-03-02T09:01:15.013Z,40.20
2024-03-02T09:03:48.486Z,40.90
2024-03-02T09:06:22.880Z,38.28
2024-03-02T09:08:56.026Z,37.97
2024-03-02T09:11:29.898Z,41.47
2024-03-02T09:14:06.817Z,24.15
2024-03-02T09:16:39.743Z,39.53
2024-03-02T09:19:13.276Z,32.85
2024-03-02T09:21:46.067Z,29.13
2024-03-02T09:24:19.132Z,32.40
2024-03-02T09:26:53.092Z,31.88
2024-03-02T09:29:26.363Z,39.17
2024-03-02T09:31:59.240Z,38.40
2024-03-02T09:34:32.296Z,46.90
2024-03-02T09:37:06.134Z,33.88
2024-03-02T09:39:39.999Z,29.88
2024-03-02T09:42:16.756Z,39.95
2024-03-02T09:44:50.059Z,52.30
2024-03-02T09:47:22.770Z,36.03
2024-03-02T09:49:57.123Z,33.65
2024-03-02T09:52:29.749Z,33.47
2024-03-02T09:55:02.979Z,42.65
2024-03-02T09:57:37.847Z,40.42
2024-03-02T10:00:16.458Z,31.90
2024-03-02T10:02:50.577Z,35.45
2024-03-02T10:05:28.855Z,29.17
2024-03-02T10:08:04.750Z,31.42
2024-03-02T10:10:42.155Z,38.20
2024-03-02T10:13:15.501Z,38.75
2024-03-02T10:15:48.539Z,25.05
2024-03-02T10:18:29.875Z,28.15
2024-03-02T10:21:14.639Z,45.00
2024-03-02T10:23:47.263Z,30.80
2024-03-02T10:26:20.458Z,32.20
2024-03-02T10:29:00.844Z,37.25
2024-03-02T10:31:34.478Z,33.50
2024-03-02T10:34:07.910Z,37.20
2024-03-02T10:36:44.457Z,30.38
2024-03-02T10:39:17.230Z,38.35
2024-03-02T10:41:51.089Z,38.03
2024-03-02T10:44:24.450Z,36.83
2024-03-02T10:46:58.237Z,34.67
2024-03-02T10:49:31.628Z,32.58
2024-03-02T10:52:05.946Z,32.70
2024-03-02T10:54:41.525Z,34.03
2024-03-02T10:57:15.623Z,26.80
2024-03-02T10:59:54.763Z,33.17
2024-03-02T11:02:29.910Z,32.10
2024-03-02T11:05:04.194Z,30.88
2024-03-02T11:07:38.144Z,37.35
2024-03-02T11:10:11.510Z,32.88
2024-03-02T11:12:57.917Z,37.95
2024-03-02T11:15:31.568Z,34.65
2024-03-02T11:18:10.892Z,36.20
2024-03-02T11:20:44.406Z,40.53
2024-03-02T11:23:17.527Z,35.00
2024-03-02T11:25:50.269Z,43.95
2024-03-02T11:28:37.235Z,37.78
2024-03-02T11:31:10.108Z,35.75
2024-03-02T11:33:44.604Z,28.35
2024-03-02T11:36:17.477Z,44.33
2024-03-02T11:38:55.047Z,36.47
2024-03-02T11:41:28.999Z,34.30
2024-03-02T11:44:05.444Z,31.33
2024-03-02T11:46:40.986Z,34.95
2024-03-02T11:49:17.054Z,36.63
2024-03-02T11:52:03.636Z,47.03
2024-03-02T11:54:39.529Z,37.53
2024-03-02T11:57:13.269Z,41.83
2024-03-02T11:59:46.813Z,35.30
2024-03-02T12:02:22.687Z,38.80
2024-03-02T12:04:56.007Z,34.30
2024-03-02T12:07:28.683Z,49.08
2024-03-02T12:10:03.407Z,35.22
2024-03-02T12:12:36.595Z,38.53
2024-03-02T12:15:10.712Z,41.67
2024-03-02T12:17:43.390Z,27.98
2024-03-02T12:20:16.535Z,37.00
2024-03-02T12:22:49.327Z,30.08
2024-03-02T12:25:23.063Z,35.67
2024-03-02T12:27:56.864Z,28.40
2024-03-02T12:30:36.872Z,28.90
2024-03-02T12:33:10.735Z,33.47
2024-03-02T12:35:44.227Z,34.30
2024-03-02T12:38:16.838Z,36.67
2024-03-02T12:40:51.129Z,30.83
2024-03-02T12:43:25.475Z,39.20
2024-03-02T12:45:58.718Z,33.22
2024-03-02T12:48:31.522Z,35.25
2024-03-02T12:51:04.839Z,34.85
2024-03-02T12:53:37.452Z,42.20
2024-03-02T12:56:10.704Z,44.10
2024-03-02T12:58:43.419Z,31.25
2024-03-02T13:01:21.044Z,39.75
2024-03-02T13:03:59.464Z,40.58
2024-03-02T13:06:35.165Z,55.20
2024-03-02T13:09:17.205Z,95.45
2024-03-02T13:11:51.144Z,102.00
2024-03-02T13:14:26.450Z,78.88
2024-03-02T13:16:59.559Z,67.53
2024-03-02T13:19:32.525Z,67.63
2024-03-02T13:22:05.848Z,62.60
2024-03-02T13:24:38.814Z,71.90
2024-03-02T13:27:12.042Z,61.40
2024-03-02T13:29:44.742Z,43.15
2024-03-02T13:32:18.436Z,38.28
2024-03-02T13:34:51.257Z,43.30
2024-03-02T13:37:24.472Z,44.38
2024-03-02T13:39:57.158Z,42.63
2024-03-02T13:42:31.355Z,28.02
2024-03-02T13:45:05.995Z,47.83
2024-03-02T13:47:39.090Z,41.20
2024-03-02T13:50:11.736Z,44.58
2024-03-02T13:52:44.816Z,37.70
2024-03-02T13:55:17.715Z,42.40
2024-03-02T13:57:53.839Z,37.92
2024-03-02T14:00:27.014Z,34.80
2024-03-02T14:03:00.165Z,42.25
2024-03-02T14:05:33.670Z,56.42
2024-03-02T14:08:06.943Z,52.83
2024-03-02T14:10:40.366Z,56.90
2024-03-02T14:13:13.494Z,39.80
2024-03-02T14:15:47.539Z,42.85
2024-03-02T14:18:21.588Z,39.15
2024-03-02T14:20:54.345Z,36.83
2024-03-02T14:23:27.514Z,30.20
2024-03-02T14:26:00.824Z,34.17
2024-03-02T14:28:48.080Z,18.92
2024-03-02T14:31:23.709Z,24.13
2024-03-02T14:33:56.867Z,18.67
2024-03-02T14:36:29.957Z,12.32
2024-03-02T14:39:03.313Z,13.10
2024-03-02T14:41:36.116Z,17.60
2024-03-02T14:44:09.155Z,10.45
2024-03-02T14:46:42.876Z,15.68
2024-03-02T14:49:17.392Z,12.38
2024-03-02T14:51:51.040Z,16.83
2024-03-02T14:54:24.184Z,11.85
2024-03-02T14:56:58.424Z,6.35
2024-03-02T14:59:31.601Z,10.13
2024-03-02T15:02:04.868Z,12.35
2024-03-02T15:04:37.996Z,11.07
2024-03-02T15:07:10.835Z,10.80
2024-03-02T15:09:43.874Z,18.95
2024-03-02T15:12:16.727Z,14.75
2024-03-02T15:14:50.317Z,15.23
2024-03-02T15:17:23.876Z,14.77
2024-03-02T15:19:57.093Z,15.65
2024-03-02T15:22:29.876Z,11.85
2024-03-02T15:25:03.179Z,13.50
2024-03-02T15:27:36.296Z,19.77
2024-03-02T15:30:09.573Z,14.73
2024-03-02T15:32:42.440Z,12.02
2024-03-02T15:35:15.600Z,13.88
2024-03-02T15:37:48.369Z,9.10
2024-03-02T15:40:21.388Z,13.25
2024-03-02T15:42:54.349Z,10.23
2024-03-02T15:45:34.939Z,15.57
2024-03-02T15:48:07.819Z,9.13
2024-03-02T15:50:40.933Z,9.80
2024-03-02T15:53:14.612Z,8.73
2024-03-02T15:55:47.705Z,12.43
2024-03-02T15:58:20.417Z,7.90
2024-03-02T16:00:53.928Z,11.65
2024-03-02T16:03:26.754Z,9.13
2024-03-02T16:05:59.870Z,15.60
2024-03-02T16:08:32.969Z,8.43
2024-03-02T16:11:06.555Z,9.00
2024-03-02T16:13:40.659Z,12.15
2024-03-02T16:16:14.224Z,10.07
2024-03-02T16:18:46.998Z,15.80
2024-03-02T16:21:21.773Z,8.88
2024-03-02T16:23:54.466Z,15.70
2024-03-02T16:26:27.709Z,10.80
2024-03-02T16:29:00.432Z,10.73
2024-03-02T16:31:33.616Z,13.00
2024-03-02T16:34:06.363Z,15.80
2024-03-02T16:36:42.029Z,14.23
2024-03-02T16:39:18.530Z,10.55
2024-03-02T16:41:52.519Z,13.80
2024-03-02T16:44:25.465Z,10.73
2024-03-02T16:46:58.554Z,19.63
2024-03-02T16:49:31.325Z,11.60
2024-03-02T16:52:04.909Z,8.45
2024-03-02T16:54:37.713Z,21.00
2024-03-02T16:57:14.403Z,17.90
2024-03-02T16:59:47.319Z,15.05
2024-03-02T17:02:21.422Z,16.77
2024-03-02T17:04:54.890Z,17.45
2024-03-02T17:07:30.532Z,13.25
2024-03-02T17:10:03.391Z,19.30
2024-03-02T17:12:36.811Z,14.93
2024-03-02T17:15:09.717Z,18.27
2024-03-02T17:17:42.934Z,13.80
2024-03-02T17:20:16.490Z,11.70
2024-03-02T17:22:50.055Z,19.50
2024-03-02T17:25:22.847Z,22.33
2024-03-02T17:28:15.813Z,22.98
2024-03-02T17:30:48.650Z,22.27
2024-03-02T17:40:12.552Z,16.65
2024-03-02T17:42:45.734Z,12.93
2024-03-02T17:50:23.210Z,13.18
2024-03-02T17:52:59.482Z,16.77
2024-03-02T17:55:32.417Z,15.77
2024-03-02T17:58:05.774Z,12.02
2024-03-02T18:00:38.895Z,17.17
2024-03-02T18:03:12.076Z,21.55
2024-03-02T18:05:44.882Z,15.50
2024-03-02T18:08:17.882Z,17.27
2024-03-02T18:10:52.439Z,17.60
2024-03-02T18:13:25.648Z,18.95
2024-03-02T18:15:59.518Z,12.63
2024-03-02T18:18:32.674Z,17.05
2024-03-02T18:21:05.646Z,15.50
2024-03-02T18:23:38.687Z,18.80
2024-03-02T18:26:11.397Z,15.93
2024-03-02T18:28:44.436Z,31.95
2024-03-02T18:31:23.067Z,20.40
2024-03-02T18:33:56.233Z,19.25
2024-03-02T18:36:28.962Z,19.10
2024-03-02T18:39:02.207Z,13.27
2024-03-02T18:41:35.322Z,19.50
2024-03-02T18:44:09.076Z,18.80
2024-03-02T18:46:41.895Z,15.68
2024-03-02T18:49:15.293Z,25.13
2024-03-02T18:51:48.178Z,21.83
2024-03-02T18:54:24.909Z,24.23
2024-03-02T18:56:58.400Z,19.60
2024-03-02T18:59:32.120Z,18.13
2024-03-02T19:02:05.749Z,23.35
2024-03-02T19:04:38.964Z,16.73
2024-03-02T19:07:11.984Z,18.35
2024-03-02T19:09:45.060Z,25.58
2024-03-02T19:12:17.822Z,23.05
2024-03-02T19:14:51.263Z,19.20
2024-03-02T19:17:24.023Z,20.02
2024-03-02T19:19:57.060Z,22.35
2024-03-02T19:22:30.917Z,29.42
2024-03-02T19:25:05.820Z,24.08
2024-03-02T19:27:39.145Z,22.05
2024-03-02T19:30:12.551Z,25.90
2024-03-02T19:32:51.228Z,23.30
2024-03-02T19:35:24.632Z,20.60
2024-03-02T19:37:58.922Z,30.08
2024-03-02T19:40:32.074Z,32.13
2024-03-02T19:43:05.145Z,31.42
2024-03-02T19:45:38.296Z,21.55
2024-03-02T19:48:11.027Z,26.20
2024-03-02T19:50:44.806Z,28.30
2024-03-02T19:53:17.651Z,28.25
2024-03-02T19:55:50.654Z,25.50
2024-03-02T19:58:23.405Z,20.67
2024-03-02T20:00:57.688Z,19.00
2024-03-02T20:03:34.209Z,19.95
2024-03-02T20:06:09.124Z,20.92
2024-03-02T20:08:42.239Z,20.15
2024-03-02T20:11:18.457Z,18.48
2024-03-02T20:13:55.487Z,23.27
2024-03-02T20:16:28.489Z,32.58
2024-03-02T20:19:01.627Z,18.48
2024-03-02T20:21:35.638Z,25.05
2024-03-02T20:24:09.073Z,22.38
2024-03-02T20:26:42.314Z,24.58
2024-03-02T20:29:14.944Z,29.83
2024-03-02T20:31:48.575Z,25.35
2024-03-02T20:34:21.492Z,33.10
2024-03-02T20:36:54.742Z,32.10
2024-03-02T20:39:27.501Z,28.15
2024-03-02T20:42:00.699Z,33.95
2024-03-02T20:44:33.334Z,32.72
2024-03-02T20:47:06.458Z,31.67
2024-03-02T20:49:39.303Z,36.05
2024-03-02T20:52:12.534Z,23.65
2024-03-02T20:54:45.343Z,36.83
2024-03-02T20:57:18.450Z,37.33
2024-03-02T20:59:51.251Z,32.13
2024-03-02T21:02:24.368Z,42.58
2024-03-02T21:04:57.259Z,33.75
2024-03-02T21:07:30.431Z,32.42
2024-03-02T21:10:03.930Z,32.85
2024-03-02T21:12:37.220Z,38.95
2024-03-02T21:15:10.186Z,34.85
2024-03-02T21:17:43.386Z,30.38
2024-03-02T21:20:16.096Z,38.97
2024-03-02T21:22:53.046Z,30.60
2024-03-02T21:44:29.778Z,35.97
2024-03-02T21:47:05.210Z,47.05
2024-03-02T21:49:39.469Z,49.97
2024-03-02T21:52:12.750Z,48.47
2024-03-02T21:54:47.672Z,38.88
2024-03-02T21:57:21.476Z,52.67
2024-03-02T21:59:54.136Z,39.55
2024-03-02T22:02:27.235Z,48.65
2024-03-02T22:05:00.108Z,50.47
2024-03-02T22:07:33.389Z,49.08
2024-03-02T22:10:06.734Z,47.28
2024-03-02T22:12:39.985Z,46.42
2024-03-02T22:15:12.629Z,48.38
2024-03-02T22:17:45.628Z,40.42
2024-03-02T22:23:31.505Z,41.60
2024-03-02T22:32:20.858Z,42.03
2024-03-02T22:34:54.061Z,50.25
2024-03-02T22:37:27.090Z,48.92
2024-03-02T22:40:00.114Z,48.53
2024-03-02T22:42:34.603Z,50.65
2024-03-02T22:45:08.426Z,49.05
2024-03-02T22:47:41.073Z,40.05
2024-03-02T22:50:14.192Z,50.03
2024-03-02T22:52:46.897Z,43.25
2024-03-02T22:55:20.085Z,42.42
2024-03-02T22:57:53.217Z,46.42
2024-03-02T23:00:32.210Z,50.25
2024-03-02T23:03:04.968Z,45.60
2024-03-02T23:05:38.054Z,50.45
2024-03-02T23:08:10.889Z,57.22
2024-03-02T23:10:44.197Z,60.67
2024-03-02T23:13:16.916Z,42.85
2024-03-02T23:15:50.340Z,54.30
2024-03-02T23:18:23.242Z,51.67
2024-03-02T23:20:56.324Z,48.63
2024-03-02T23:23:29.044Z,54.25
2024-03-02T23:26:02.144Z,48.00
2024-03-02T23:28:34.823Z,46.88
2024-03-02T23:31:07.919Z,65.30
2024-03-02T23:33:40.991Z,51.90
2024-03-02T23:36:14.119Z,47.83
2024-03-02T23:38:47.027Z,50.35
2024-03-02T23:41:20.359Z,53.88
2024-03-02T23:43:53.055Z,47.90
2024-03-02T23:46:26.167Z,52.25
2024-03-02T23:48:58.841Z,48.33
2024-03-02T23:51:31.846Z,57.05
2024-03-02T23:54:04.493Z,53.55
2024-03-02T23:56:38.132Z,52.22
2024-03-02T23:59:11.406Z,46.22
